Time;durP1;ratioP1;P1;durP2;ratioP2;P2;SDS_P1;SDS_P2;PMS_P1;PMS_P2;Temp;Humidity;BMP_temperature;BMP_pressure;BME280_temperature;BME280_humidity;BME280_pressure;Samples;Min_cycle;Max_cycle;Signal;HPM_P1;HPM_P2
2021/09/12 00:02:14;;;;;;;4.60;1.95;;;;;;;-140.79;100.00;63287.88;5047435;28;20047;-72
2021/09/12 00:04:39;;;;;;;3.17;1.70;;;;;;;-140.79;100.00;63287.88;5048329;28;20048;-71
2021/09/12 00:07:05;;;;;;;3.65;2.15;;;;;;;-140.79;100.00;63287.88;5047337;28;20477;-71
2021/09/12 00:09:30;;;;;;;3.55;2.20;;;;;;;-140.79;100.00;63287.88;5048251;28;20050;-71
2021/09/12 00:11:56;;;;;;;3.60;2.20;;;;;;;-140.79;100.00;63287.88;5030303;28;20028;-72
2021/09/12 00:14:21;;;;;;;5.13;2.00;;;;;;;-140.79;100.00;63287.88;5047106;28;20033;-72
2021/09/12 00:16:47;;;;;;;3.20;2.10;;;;;;;-140.79;100.00;63287.88;5047152;28;20029;-72
2021/09/12 00:19:12;;;;;;;4.25;2.17;;;;;;;-140.79;100.00;63287.88;5048000;28;20029;-71
2021/09/12 00:21:38;;;;;;;4.60;2.10;;;;;;;-140.79;100.00;63287.88;5029766;28;20040;-71
2021/09/12 00:24:03;;;;;;;3.58;1.95;;;;;;;-140.79;100.00;63287.88;5010409;28;20048;-71
2021/09/12 00:26:29;;;;;;;3.85;2.03;;;;;;;-140.79;100.00;63287.88;5027225;28;20128;-72
2021/09/12 00:28:54;;;;;;;3.35;2.22;;;;;;;-140.79;100.00;63287.88;5025893;28;20044;-70
2021/09/12 00:31:19;;;;;;;3.28;2.00;;;;;;;-140.79;100.00;63287.88;5026276;28;20026;-70
2021/09/12 00:33:45;;;;;;;3.97;2.08;;;;;;;-140.79;100.00;63287.88;5044832;28;20043;-70
2021/09/12 00:36:10;;;;;;;3.25;1.98;;;;;;;-140.79;100.00;63287.88;5047164;28;20025;-70
2021/09/12 00:38:36;;;;;;;2.78;1.80;;;;;;;-140.79;100.00;63287.88;5046809;28;20083;-70
2021/09/12 00:41:01;;;;;;;3.53;2.67;;;;;;;-140.79;100.00;63287.88;5047717;28;20127;-70
2021/09/12 00:43:27;;;;;;;2.72;1.73;;;;;;;-140.79;100.00;63287.88;5045575;28;20040;-71
2021/09/12 00:45:53;;;;;;;3.95;2.20;;;;;;;-140.79;100.00;63287.88;5047117;28;20037;-71
2021/09/12 00:48:19;;;;;;;4.72;2.25;;;;;;;-140.79;100.00;63287.88;5012379;28;20665;-71
2021/09/12 00:50:44;;;;;;;3.38;1.83;;;;;;;-140.79;100.00;63287.88;5029474;28;20074;-71
2021/09/12 00:53:10;;;;;;;4.47;2.33;;;;;;;-140.79;100.00;63287.88;5046456;28;20033;-70
2021/09/12 00:55:35;;;;;;;3.85;1.90;;;;;;;-140.79;100.00;63287.88;4997661;28;20766;-71
2021/09/12 00:58:01;;;;;;;3.20;1.95;;;;;;;-140.79;100.00;63287.88;5036092;28;20071;-72
2021/09/12 01:00:26;;;;;;;3.10;1.80;;;;;;;-140.79;100.00;63287.88;5029854;28;20029;-72
2021/09/12 01:02:52;;;;;;;3.83;2.08;;;;;;;-140.79;100.00;63287.88;5011906;28;20025;-71
2021/09/12 01:05:17;;;;;;;4.57;2.15;;;;;;;-140.79;100.00;63287.88;5047189;28;20511;-70
2021/09/12 01:07:43;;;;;;;3.75;1.83;;;;;;;-140.79;100.00;63287.88;5028187;28;20036;-70
2021/09/12 01:10:09;;;;;;;4.05;2.10;;;;;;;-140.79;100.00;63287.88;5029198;28;20029;-70
2021/09/12 01:12:35;;;;;;;5.07;2.15;;;;;;;-140.79;100.00;63287.88;5046505;28;20510;-71
2021/09/12 01:15:00;;;;;;;4.15;2.30;;;;;;;-140.79;100.00;63287.88;5028294;28;20029;-71
2021/09/12 01:17:27;;;;;;;4.30;2.25;;;;;;;-140.79;100.00;63287.88;5041618;28;20044;-71
2021/09/12 01:19:52;;;;;;;2.80;2.25;;;;;;;-140.79;100.00;63287.88;5017343;28;20586;-71
2021/09/12 01:22:18;;;;;;;3.97;1.80;;;;;;;-140.79;100.00;63287.88;5018712;28;20036;-71
2021/09/12 01:24:44;;;;;;;4.68;1.85;;;;;;;-140.79;100.00;63287.88;5045807;28;20040;-71
2021/09/12 01:27:09;;;;;;;3.05;1.80;;;;;;;-140.79;100.00;63287.88;5045975;28;20033;-71
2021/09/12 01:29:35;;;;;;;3.15;1.90;;;;;;;-140.79;100.00;63287.88;5046744;28;20047;-71
2021/09/12 01:32:00;;;;;;;3.72;2.22;;;;;;;-140.79;100.00;63287.88;5027884;28;20123;-71
2021/09/12 01:34:26;;;;;;;3.25;1.85;;;;;;;-140.79;100.00;63287.88;5047038;28;20094;-71
2021/09/12 01:36:51;;;;;;;3.45;2.20;;;;;;;-140.79;100.00;63287.88;5045597;28;20032;-71
2021/09/12 01:39:17;;;;;;;4.28;2.20;;;;;;;-140.79;100.00;63287.88;5046526;28;20025;-71
2021/09/12 01:41:42;;;;;;;3.28;1.98;;;;;;;-140.79;100.00;63287.88;5028691;28;20025;-71
2021/09/12 01:44:07;;;;;;;3.80;2.10;;;;;;;-140.79;100.00;63287.88;5045247;28;20040;-71
2021/09/12 01:46:33;;;;;;;3.22;2.00;;;;;;;-140.79;100.00;63287.88;5046505;28;20090;-71
2021/09/12 01:49:01;;;;;;;4.90;2.10;;;;;;;-140.79;100.00;63287.88;5026258;28;20025;-71
2021/09/12 01:51:27;;;;;;;4.32;1.98;;;;;;;-140.79;100.00;63287.88;5028031;28;20522;-71
2021/09/12 01:53:52;;;;;;;4.60;2.20;;;;;;;-140.79;100.00;63287.88;5044731;28;20024;-71
2021/09/12 01:56:18;;;;;;;3.25;1.83;;;;;;;-140.79;100.00;63287.88;5046033;28;20501;-71
2021/09/12 01:58:43;;;;;;;3.80;1.80;;;;;;;-140.79;100.00;63287.88;5044636;28;20036;-71
2021/09/12 02:01:09;;;;;;;3.55;2.00;;;;;;;-140.79;100.00;63287.88;5045816;28;20025;-71
2021/09/12 02:03:35;;;;;;;3.13;2.10;;;;;;;-140.79;100.00;63287.88;5045275;28;20487;-71
2021/09/12 02:06:00;;;;;;;4.55;1.90;;;;;;;-140.79;100.00;63287.88;5045866;28;20043;-71
2021/09/12 02:08:26;;;;;;;4.00;2.25;;;;;;;-140.79;100.00;63287.88;5033931;28;20091;-71
2021/09/12 02:10:51;;;;;;;3.03;1.92;;;;;;;-140.79;100.00;63287.88;5021868;28;20079;-71
2021/09/12 02:13:17;;;;;;;3.13;2.05;;;;;;;-140.79;100.00;63287.88;5004997;28;20384;-71
2021/09/12 02:15:42;;;;;;;3.00;1.92;;;;;;;-140.79;100.00;63287.88;5016959;28;20024;-71
2021/09/12 02:18:08;;;;;;;3.22;1.90;;;;;;;-140.79;100.00;63287.88;5006020;28;20033;-71
2021/09/12 02:20:34;;;;;;;3.63;2.03;;;;;;;-140.79;100.00;63287.88;5005627;28;20037;-71
2021/09/12 02:22:59;;;;;;;3.03;2.00;;;;;;;-140.79;100.00;63287.88;5028996;28;20086;-71
2021/09/12 02:25:24;;;;;;;4.75;1.90;;;;;;;-140.79;100.00;63287.88;5027887;28;20063;-71
2021/09/12 02:27:50;;;;;;;2.63;1.60;;;;;;;-140.79;100.00;63287.88;5045552;28;20025;-71
2021/09/12 02:30:15;;;;;;;3.60;1.90;;;;;;;-140.79;100.00;63287.88;5045482;28;20098;-71
2021/09/12 02:32:41;;;;;;;3.03;2.10;;;;;;;-140.79;100.00;63287.88;5034773;28;20025;-71
2021/09/12 02:35:07;;;;;;;2.78;1.73;;;;;;;-140.79;100.00;63287.88;5025407;28;20151;-71
2021/09/12 02:37:33;;;;;;;4.38;2.17;;;;;;;-140.79;100.00;63287.88;5024407;28;20084;-71
2021/09/12 02:39:58;;;;;;;3.05;2.20;;;;;;;-140.79;100.00;63287.88;5007274;28;20503;-71
2021/09/12 02:42:24;;;;;;;3.67;2.30;;;;;;;-140.79;100.00;63287.88;5008391;28;20492;-71
2021/09/12 02:44:49;;;;;;;3.75;2.00;;;;;;;-140.79;100.00;63287.88;5045272;28;20037;-71
2021/09/12 02:47:15;;;;;;;3.03;2.03;;;;;;;-140.79;100.00;63287.88;5045121;28;20523;-71
2021/09/12 02:49:40;;;;;;;4.85;2.10;;;;;;;-140.79;100.00;63287.88;5044495;28;20036;-71
2021/09/12 02:52:06;;;;;;;4.18;1.83;;;;;;;-140.79;100.00;63287.88;5020666;28;20026;-71
2021/09/12 02:54:31;;;;;;;3.72;1.90;;;;;;;-140.79;100.00;63287.88;5021679;28;20499;-71
2021/09/12 02:56:57;;;;;;;2.90;1.75;;;;;;;-140.79;100.00;63287.88;5025067;28;20029;-71
2021/09/12 02:59:22;;;;;;;3.20;2.00;;;;;;;-140.79;100.00;63287.88;5038952;28;20328;-71
2021/09/12 03:01:48;;;;;;;3.58;1.92;;;;;;;-140.79;100.00;63287.88;5044616;28;20035;-71
2021/09/12 03:04:13;;;;;;;3.08;2.10;;;;;;;-140.79;100.00;63287.88;5043387;28;20075;-70
2021/09/12 03:06:38;;;;;;;3.75;2.10;;;;;;;-140.79;100.00;63287.88;5043312;28;20045;-71
2021/09/12 03:09:04;;;;;;;3.13;1.75;;;;;;;-140.79;100.00;63287.88;5025059;28;20044;-71
2021/09/12 03:11:29;;;;;;;3.10;2.03;;;;;;;-140.79;100.00;63287.88;5024592;28;20459;-70
2021/09/12 03:13:55;;;;;;;5.88;2.20;;;;;;;-140.79;100.00;63287.88;5025264;28;20523;-71
2021/09/12 03:16:20;;;;;;;4.18;2.15;;;;;;;-140.79;100.00;63287.88;5037111;28;20029;-70
2021/09/12 03:18:46;;;;;;;2.50;1.70;;;;;;;-140.79;100.00;63287.88;5045026;28;20516;-70
2021/09/12 03:21:11;;;;;;;3.95;2.15;;;;;;;-140.79;100.00;63287.88;5044105;28;20029;-72
2021/09/12 03:23:38;;;;;;;2.97;1.65;;;;;;;-140.79;100.00;63287.88;5043357;28;20055;-70
2021/09/12 03:26:03;;;;;;;3.80;1.90;;;;;;;-140.79;100.00;63287.88;5044887;28;20037;-72
2021/09/12 03:28:29;;;;;;;4.50;1.90;;;;;;;-140.79;100.00;63287.88;5043883;28;20037;-71
2021/09/12 03:30:54;;;;;;;2.95;2.05;;;;;;;-140.79;100.00;63287.88;5044286;28;20032;-71
2021/09/12 03:33:20;;;;;;;3.72;2.05;;;;;;;-140.79;100.00;63287.88;5043976;28;20041;-71
2021/09/12 03:35:45;;;;;;;3.42;2.10;;;;;;;-140.79;100.00;63287.88;5037159;28;20033;-71
2021/09/12 03:38:11;;;;;;;3.97;2.00;;;;;;;-140.79;100.00;63287.88;5022319;28;20037;-71
2021/09/12 03:40:36;;;;;;;2.80;2.00;;;;;;;-140.79;100.00;63287.88;5024863;28;20144;-75
2021/09/12 03:43:02;;;;;;;3.63;2.08;;;;;;;-140.79;100.00;63287.88;5029359;28;20043;-71
2021/09/12 03:45:27;;;;;;;2.70;1.90;;;;;;;-140.79;100.00;63287.88;5043332;28;20029;-71
2021/09/12 03:47:53;;;;;;;2.75;1.80;;;;;;;-140.79;100.00;63287.88;5015043;28;20435;-72
2021/09/12 03:50:18;;;;;;;2.45;1.70;;;;;;;-140.79;100.00;63287.88;5014060;28;20303;-72
2021/09/12 03:52:44;;;;;;;3.30;2.10;;;;;;;-140.79;100.00;63287.88;5015784;28;20030;-72
2021/09/12 03:55:09;;;;;;;3.63;2.00;;;;;;;-140.79;100.00;63287.88;5020091;28;20041;-73
2021/09/12 03:57:35;;;;;;;3.47;2.00;;;;;;;-140.79;100.00;63287.88;5014993;28;20488;-72
2021/09/12 04:00:01;;;;;;;3.10;2.00;;;;;;;-140.79;100.00;63287.88;5015484;28;20017;-73
2021/09/12 04:02:26;;;;;;;3.88;2.58;;;;;;;-140.79;100.00;63287.88;5016514;28;20112;-72
2021/09/12 04:04:52;;;;;;;3.13;1.95;;;;;;;-140.79;100.00;63287.88;5013106;28;20048;-72
2021/09/12 04:07:17;;;;;;;3.42;1.88;;;;;;;-140.79;100.00;63287.88;4996116;28;20048;-73
2021/09/12 04:09:43;;;;;;;4.13;2.10;;;;;;;-140.79;100.00;63287.88;5015116;28;20068;-71
2021/09/12 04:12:08;;;;;;;3.33;2.00;;;;;;;-140.79;100.00;63287.88;5012461;28;20056;-73
2021/09/12 04:14:34;;;;;;;4.40;2.30;;;;;;;-140.79;100.00;63287.88;5014475;28;20027;-72
2021/09/12 04:16:59;;;;;;;3.55;2.33;;;;;;;-140.79;100.00;63287.88;5016221;28;20029;-72
2021/09/12 04:19:25;;;;;;;3.13;2.15;;;;;;;-140.79;100.00;63287.88;5012684;28;20095;-72
2021/09/12 04:21:50;;;;;;;3.83;2.38;;;;;;;-140.79;100.00;63287.88;5010105;28;20727;-71
2021/09/12 04:24:16;;;;;;;4.07;2.50;;;;;;;-140.79;100.00;63287.88;5015802;28;20045;-71
2021/09/12 04:26:41;;;;;;;3.63;2.17;;;;;;;-140.79;100.00;63287.88;5015253;28;20044;-71
2021/09/12 04:29:07;;;;;;;3.58;2.10;;;;;;;-140.79;100.00;63287.88;5017811;28;20033;-71
2021/09/12 04:31:32;;;;;;;3.55;2.65;;;;;;;-140.79;100.00;63287.88;5016634;28;20028;-72
2021/09/12 04:33:58;;;;;;;4.40;2.50;;;;;;;-140.79;100.00;63287.88;5008947;28;20026;-71
2021/09/12 04:36:23;;;;;;;4.57;2.33;;;;;;;-140.79;100.00;63287.88;5009920;28;20026;-71
2021/09/12 04:38:49;;;;;;;4.28;2.50;;;;;;;-140.79;100.00;63287.88;5011455;28;20109;-72
2021/09/12 04:41:14;;;;;;;5.78;2.67;;;;;;;-140.79;100.00;63287.88;5008069;28;20029;-71
2021/09/12 04:43:39;;;;;;;3.97;2.55;;;;;;;-140.79;100.00;63287.88;5007205;28;20030;-71
2021/09/12 04:46:05;;;;;;;4.78;2.40;;;;;;;-140.79;100.00;63287.88;5011118;28;20322;-73
2021/09/12 04:48:30;;;;;;;5.97;2.90;;;;;;;-140.79;100.00;63287.88;5008435;28;20091;-73
2021/09/12 04:50:56;;;;;;;4.35;2.53;;;;;;;-140.79;100.00;63287.88;5008256;28;20026;-72
2021/09/12 04:53:22;;;;;;;4.38;2.70;;;;;;;-140.79;100.00;63287.88;5008407;28;20021;-74
2021/09/12 04:55:47;;;;;;;3.45;2.25;;;;;;;-140.79;100.00;63287.88;5006359;28;20477;-76
2021/09/12 04:58:13;;;;;;;4.35;2.92;;;;;;;-140.79;100.00;63287.88;5007195;28;20029;-73
2021/09/12 05:00:38;;;;;;;5.10;2.67;;;;;;;-140.79;100.00;63287.88;5014612;28;20079;-71
2021/09/12 05:03:03;;;;;;;4.38;2.42;;;;;;;-140.79;100.00;63287.88;5013136;28;20504;-73
2021/09/12 05:05:29;;;;;;;4.55;2.47;;;;;;;-140.79;100.00;63287.88;5010488;28;20018;-73
2021/09/12 05:07:54;;;;;;;5.15;2.90;;;;;;;-140.79;100.00;63287.88;5007524;28;20025;-72
2021/09/12 05:10:21;;;;;;;4.50;2.40;;;;;;;-140.79;100.00;63287.88;5010404;28;20435;-74
2021/09/12 05:12:46;;;;;;;4.40;2.92;;;;;;;-140.79;100.00;63287.88;5006689;28;20025;-74
2021/09/12 05:15:12;;;;;;;5.60;2.70;;;;;;;-140.79;100.00;63287.88;5009441;28;20026;-73
2021/09/12 05:17:37;;;;;;;6.10;3.13;;;;;;;-140.79;100.00;63287.88;5012244;28;20025;-74
2021/09/12 05:20:04;;;;;;;4.35;2.47;;;;;;;-140.79;100.00;63287.88;5011947;28;20038;-74
2021/09/12 05:22:29;;;;;;;4.10;2.60;;;;;;;-140.79;100.00;63287.88;5009363;28;20519;-71
2021/09/12 05:24:55;;;;;;;5.82;2.90;;;;;;;-140.79;100.00;63287.88;5011864;28;20026;-71
2021/09/12 05:27:20;;;;;;;4.90;2.33;;;;;;;-140.79;100.00;63287.88;5024696;28;20028;-72
2021/09/12 05:29:45;;;;;;;6.55;2.78;;;;;;;-140.79;100.00;63287.88;5025307;28;20585;-71
2021/09/12 05:32:11;;;;;;;4.68;2.17;;;;;;;-140.79;100.00;63287.88;5008498;28;20045;-74
2021/09/12 05:34:36;;;;;;;4.72;2.75;;;;;;;-140.79;100.00;63287.88;5026663;28;20026;-72
2021/09/12 05:37:02;;;;;;;7.25;2.70;;;;;;;-140.79;100.00;63287.88;5007610;28;20029;-70
2021/09/12 05:39:28;;;;;;;3.50;2.13;;;;;;;-140.79;100.00;63287.88;5011767;28;20033;-69
2021/09/12 05:41:53;;;;;;;4.38;2.33;;;;;;;-140.79;100.00;63287.88;5015878;28;20018;-71
2021/09/12 05:44:18;;;;;;;5.75;2.85;;;;;;;-140.79;100.00;63287.88;5006621;28;20156;-71
2021/09/12 05:46:45;;;;;;;4.57;2.38;;;;;;;-140.79;100.00;63287.88;5009718;28;20026;-70
2021/09/12 05:49:10;;;;;;;4.60;2.58;;;;;;;-140.79;100.00;63287.88;5021257;28;20036;-72
2021/09/12 05:51:36;;;;;;;3.65;2.35;;;;;;;-140.79;100.00;63287.88;5015481;28;20030;-72
2021/09/12 05:54:01;;;;;;;5.15;2.58;;;;;;;-140.79;100.00;63287.88;5022299;28;20033;-73
2021/09/12 05:56:27;;;;;;;7.40;2.78;;;;;;;-140.79;100.00;63287.88;5026311;28;20079;-73
2021/09/12 05:58:52;;;;;;;4.07;2.88;;;;;;;-140.79;100.00;63287.88;5025342;28;20029;-71
2021/09/12 06:01:19;;;;;;;6.88;2.97;;;;;;;-140.79;100.00;63287.88;5009841;28;20109;-72
2021/09/12 06:03:45;;;;;;;6.10;2.40;;;;;;;-140.79;100.00;63287.88;5021157;28;20057;-73
2021/09/12 06:06:10;;;;;;;4.43;2.40;;;;;;;-140.79;100.00;63287.88;5010093;28;20037;-72
2021/09/12 06:08:36;;;;;;;5.40;2.28;;;;;;;-140.79;100.00;63287.88;5005888;28;20561;-72
2021/09/12 06:11:01;;;;;;;7.18;2.45;;;;;;;-140.79;100.00;63287.88;5006445;28;20492;-72
2021/09/12 06:13:27;;;;;;;5.93;2.65;;;;;;;-140.79;100.00;63287.88;5007940;28;20056;-72
2021/09/12 06:15:52;;;;;;;4.05;2.63;;;;;;;-140.79;100.00;63287.88;5015678;28;20029;-72
2021/09/12 06:18:18;;;;;;;6.15;2.60;;;;;;;-140.79;100.00;63287.88;5007575;28;20571;-72
2021/09/12 06:20:43;;;;;;;5.05;2.47;;;;;;;-140.79;100.00;63287.88;5009497;28;20109;-71
2021/09/12 06:23:09;;;;;;;5.22;2.50;;;;;;;-140.79;100.00;63287.88;5005595;28;20029;-72
2021/09/12 06:25:34;;;;;;;3.70;2.30;;;;;;;-140.79;100.00;63287.88;4987937;28;20022;-73
2021/09/12 06:27:59;;;;;;;5.45;2.85;;;;;;;-140.79;100.00;63287.88;5005497;28;20034;-74
2021/09/12 06:30:25;;;;;;;3.83;2.80;;;;;;;-140.79;100.00;63287.88;5005410;28;20234;-72
2021/09/12 06:32:50;;;;;;;4.22;2.40;;;;;;;-140.79;100.00;63287.88;5007043;28;20083;-72
2021/09/12 06:35:16;;;;;;;5.38;2.83;;;;;;;-140.79;100.00;63287.88;5008410;28;20056;-72
2021/09/12 06:37:41;;;;;;;5.35;2.25;;;;;;;-140.79;100.00;63287.88;5006376;28;20029;-73
2021/09/12 06:40:07;;;;;;;5.50;2.67;;;;;;;-140.79;100.00;63287.88;5007401;28;20120;-72
2021/09/12 06:42:33;;;;;;;7.40;3.95;;;;;;;-140.79;100.00;63287.88;5011939;28;20029;-72
2021/09/12 06:44:58;;;;;;;9.02;2.90;;;;;;;-140.79;100.00;63287.88;5006391;28;20373;-71
2021/09/12 06:47:24;;;;;;;8.30;2.70;;;;;;;-140.79;100.00;63287.88;5005740;28;20030;-76
2021/09/12 06:49:49;;;;;;;5.32;2.80;;;;;;;-140.79;100.00;63287.88;5009920;28;20036;-71
2021/09/12 06:52:15;;;;;;;5.25;2.72;;;;;;;-140.79;100.00;63287.88;5009526;28;20038;-71
2021/09/12 06:54:40;;;;;;;5.90;2.78;;;;;;;-140.79;100.00;63287.88;5008857;28;20017;-72
2021/09/12 06:57:06;;;;;;;5.35;3.08;;;;;;;-140.79;100.00;63287.88;5010314;28;20554;-72
2021/09/12 06:59:31;;;;;;;5.20;3.03;;;;;;;-140.79;100.00;63287.88;5003884;28;20025;-72
2021/09/12 07:01:57;;;;;;;4.07;2.35;;;;;;;-140.79;100.00;63287.88;5012375;28;20116;-71
2021/09/12 07:04:22;;;;;;;4.70;2.67;;;;;;;-140.79;100.00;63287.88;5011503;28;20049;-78
2021/09/12 07:06:48;;;;;;;5.85;2.80;;;;;;;-140.79;100.00;63287.88;5007849;28;20033;-72
2021/09/12 07:09:13;;;;;;;5.35;3.03;;;;;;;-140.79;100.00;63287.88;5021097;28;20037;-71
2021/09/12 07:11:38;;;;;;;6.18;2.90;;;;;;;-140.79;100.00;63287.88;5006478;28;20190;-72
2021/09/12 07:14:04;;;;;;;5.13;2.85;;;;;;;-140.79;100.00;63287.88;5007927;28;20482;-71
2021/09/12 07:16:30;;;;;;;5.18;3.25;;;;;;;-140.79;100.00;63287.88;5010596;28;20022;-72
2021/09/12 07:18:56;;;;;;;4.32;2.72;;;;;;;-140.79;100.00;63287.88;5005734;28;20121;-71
2021/09/12 07:21:21;;;;;;;6.25;2.83;;;;;;;-140.79;100.00;63287.88;5020454;28;20876;-71
2021/09/12 07:23:47;;;;;;;4.93;2.63;;;;;;;-140.79;100.00;63287.88;5022610;28;20408;-71
2021/09/12 07:26:12;;;;;;;6.07;2.80;;;;;;;-140.79;100.00;63287.88;5025544;28;20115;-72
2021/09/12 07:28:38;;;;;;;6.07;3.10;;;;;;;-140.79;100.00;63287.88;5023428;28;20075;-72
2021/09/12 07:31:04;;;;;;;5.38;2.80;;;;;;;-140.79;100.00;63287.88;5006094;28;20119;-72
2021/09/12 07:33:29;;;;;;;4.45;2.45;;;;;;;-140.79;100.00;63287.88;5024352;28;20734;-70
2021/09/12 07:35:55;;;;;;;5.63;3.15;;;;;;;-140.79;100.00;63287.88;5016311;28;20056;-69
2021/09/12 07:38:20;;;;;;;4.90;2.95;;;;;;;-140.79;100.00;63287.88;5006906;28;20596;-70
2021/09/12 07:40:45;;;;;;;5.90;2.65;;;;;;;-140.79;100.00;63287.88;5005113;28;20022;-73
2021/09/12 07:43:11;;;;;;;4.32;2.70;;;;;;;-140.79;100.00;63287.88;5004667;28;20452;-73
2021/09/12 07:45:36;;;;;;;5.88;3.00;;;;;;;-140.79;100.00;63287.88;5006808;28;20053;-73
2021/09/12 07:48:02;;;;;;;6.90;3.03;;;;;;;-140.79;100.00;63287.88;5008583;28;20045;-70
2021/09/12 07:50:28;;;;;;;4.68;3.03;;;;;;;-140.79;100.00;63287.88;5006388;28;20022;-71
2021/09/12 07:52:53;;;;;;;4.45;2.75;;;;;;;-140.79;100.00;63287.88;5012224;28;20024;-71
2021/09/12 07:55:18;;;;;;;5.10;2.70;;;;;;;-140.79;100.00;63287.88;5020299;28;20036;-72
2021/09/12 07:57:44;;;;;;;5.65;3.30;;;;;;;-140.79;100.00;63287.88;5018283;28;20021;-74
2021/09/12 08:00:10;;;;;;;5.03;2.58;;;;;;;-140.79;100.00;63287.88;5016389;28;20029;-71
2021/09/12 08:02:35;;;;;;;5.50;3.10;;;;;;;-140.79;100.00;63287.88;4995063;28;20480;-71
2021/09/12 08:05:01;;;;;;;5.68;2.70;;;;;;;-140.79;100.00;63287.88;5026915;28;20119;-71
2021/09/12 08:07:26;;;;;;;4.55;2.90;;;;;;;-140.79;100.00;63287.88;5028096;28;20520;-71
2021/09/12 08:09:52;;;;;;;4.30;2.72;;;;;;;-140.79;100.00;63287.88;5027622;28;20128;-71
2021/09/12 08:12:17;;;;;;;5.68;2.60;;;;;;;-140.79;100.00;63287.88;5027782;28;20111;-71
2021/09/12 08:14:43;;;;;;;4.63;2.67;;;;;;;-140.79;100.00;63287.88;5027421;28;20031;-71
2021/09/12 08:17:08;;;;;;;7.57;3.13;;;;;;;-140.79;100.00;63287.88;5028185;28;20060;-70
2021/09/12 08:19:34;;;;;;;4.22;2.38;;;;;;;-140.79;100.00;63287.88;5027204;28;20160;-71
2021/09/12 08:21:59;;;;;;;4.50;2.97;;;;;;;-140.79;100.00;63287.88;5027216;28;20032;-72
2021/09/12 08:24:25;;;;;;;5.22;2.65;;;;;;;-140.79;100.00;63287.88;5024809;28;20033;-72
2021/09/12 08:26:50;;;;;;;4.75;2.97;;;;;;;-140.79;100.00;63287.88;5023402;28;20600;-72
2021/09/12 08:29:15;;;;;;;6.05;2.80;;;;;;;-140.79;100.00;63287.88;5025932;28;20744;-73
2021/09/12 08:31:41;;;;;;;4.80;2.85;;;;;;;-140.79;100.00;63287.88;5027830;28;20491;-72
2021/09/12 08:34:07;;;;;;;5.10;2.78;;;;;;;-140.79;100.00;63287.88;5026118;28;20725;-72
2021/09/12 08:36:32;;;;;;;4.10;2.75;;;;;;;-140.79;100.00;63287.88;5026269;28;20029;-72
2021/09/12 08:38:58;;;;;;;5.95;3.15;;;;;;;-140.79;100.00;63287.88;5027208;28;20025;-72
2021/09/12 08:41:23;;;;;;;4.75;2.95;;;;;;;-140.79;100.00;63287.88;5017055;28;20898;-72
2021/09/12 08:43:49;;;;;;;5.85;2.88;;;;;;;-140.79;100.00;63287.88;5009144;28;20496;-71
2021/09/12 08:46:15;;;;;;;4.20;2.75;;;;;;;-140.79;100.00;63287.88;5027226;28;20036;-72
2021/09/12 08:48:40;;;;;;;6.60;2.63;;;;;;;-140.79;100.00;63287.88;5023532;28;20029;-70
2021/09/12 08:51:05;;;;;;;4.50;2.97;;;;;;;-140.79;100.00;63287.88;5023571;28;20028;-69
2021/09/12 08:53:31;;;;;;;5.30;3.08;;;;;;;-140.79;100.00;63287.88;5019367;28;20041;-71
2021/09/12 08:55:56;;;;;;;5.60;2.85;;;;;;;-140.79;100.00;63287.88;5026115;28;20049;-71
2021/09/12 08:58:22;;;;;;;5.97;3.00;;;;;;;-140.79;100.00;63287.88;5016602;28;20040;-76
2021/09/12 09:00:47;;;;;;;7.28;3.63;;;;;;;-140.79;100.00;63287.88;5027072;28;20028;-74
2021/09/12 09:03:13;;;;;;;6.13;3.08;;;;;;;-140.79;100.00;63287.88;5025868;28;20025;-72
2021/09/12 09:05:42;;;;;;;6.70;2.92;;;;;;;-140.79;100.00;63287.88;5025922;28;20423;-72
2021/09/12 09:08:18;;;;;;;4.70;2.72;;;;;;;-140.79;100.00;63287.88;5026449;28;20029;-72
2021/09/12 09:10:50;;;;;;;5.30;2.90;;;;;;;-140.79;100.00;63287.88;5025484;28;20120;-73
2021/09/12 09:13:38;;;;;;;7.25;2.88;;;;;;;-140.79;100.00;63287.88;5033705;28;20029;-69
2021/09/12 09:16:05;;;;;;;6.28;3.40;;;;;;;-140.79;100.00;63287.88;5026558;28;20040;-72
2021/09/12 09:18:35;;;;;;;5.07;2.90;;;;;;;-140.79;100.00;63287.88;5026413;28;20021;-72
2021/09/12 09:21:01;;;;;;;6.68;3.08;;;;;;;-140.79;100.00;63287.88;5026369;28;20051;-72
2021/09/12 09:23:26;;;;;;;5.30;3.33;;;;;;;-140.79;100.00;63287.88;5007807;28;20219;-71
2021/09/12 09:25:53;;;;;;;8.13;3.30;;;;;;;-140.79;100.00;63287.88;5026595;28;20127;-71
2021/09/12 09:28:19;;;;;;;13.43;7.25;;;;;;;-140.79;100.00;63287.88;5009645;28;20041;-70
2021/09/12 09:30:49;;;;;;;22.77;11.73;;;;;;;-140.79;100.00;63287.88;5008564;28;20500;-71
2021/09/12 09:33:24;;;;;;;;;;;;;;;-140.79;100.00;63287.88;5027087;28;20491;-71
2021/09/12 09:36:06;;;;;;;9.63;4.80;;;;;;;-140.79;100.00;63287.88;5009990;28;19937;-70
2021/09/12 09:38:36;;;;;;;6.07;3.85;;;;;;;-140.79;100.00;63287.88;5018110;28;20041;-71
2021/09/12 09:41:05;;;;;;;9.65;4.07;;;;;;;-140.79;100.00;63287.88;5025008;28;20037;-70
2021/09/12 09:43:52;;;;;;;9.30;3.85;;;;;;;-140.79;100.00;63287.88;5020532;28;20125;-71
2021/09/12 09:46:31;;;;;;;7.43;4.10;;;;;;;-140.79;100.00;63287.88;5023187;28;20481;-70
2021/09/12 09:49:00;;;;;;;6.57;3.65;;;;;;;-140.79;100.00;63287.88;5026114;28;20025;-71
2021/09/12 09:51:26;;;;;;;7.85;3.60;;;;;;;-140.79;100.00;63287.88;5026222;28;20037;-71
2021/09/12 09:53:51;;;;;;;8.00;3.75;;;;;;;-140.79;100.00;63287.88;5022021;28;20102;-72
2021/09/12 09:56:17;;;;;;;6.75;3.47;;;;;;;-140.79;100.00;63287.88;5025026;28;20036;-71
2021/09/12 09:58:43;;;;;;;5.50;3.47;;;;;;;-140.79;100.00;63287.88;5024934;28;20549;-72
2021/09/12 10:01:08;;;;;;;5.65;3.40;;;;;;;-140.79;100.00;63287.88;5024187;28;20087;-71
2021/09/12 10:03:34;;;;;;;5.82;3.50;;;;;;;-140.79;100.00;63287.88;5025954;28;20061;-71
2021/09/12 10:06:00;;;;;;;6.05;3.80;;;;;;;-140.79;100.00;63287.88;5025858;28;20088;-72
2021/09/12 10:08:25;;;;;;;5.05;3.05;;;;;;;-140.79;100.00;63287.88;5024561;28;20028;-72
2021/09/12 10:10:51;;;;;;;6.68;3.78;;;;;;;-140.79;100.00;63287.88;5025397;28;20037;-72
2021/09/12 10:13:18;;;;;;;6.75;3.53;;;;;;;-140.79;100.00;63287.88;5023953;28;20028;-73
2021/09/12 10:15:44;;;;;;;8.88;4.30;;;;;;;-140.79;100.00;63287.88;5026511;28;20153;-73
2021/09/12 10:18:09;;;;;;;8.07;4.07;;;;;;;-140.79;100.00;63287.88;5011091;28;20464;-72
2021/09/12 10:20:37;;;;;;;8.00;4.18;;;;;;;-140.79;100.00;63287.88;5024943;28;20108;-72
2021/09/12 10:23:07;;;;;;;8.40;4.05;;;;;;;-140.79;100.00;63287.88;5025314;28;20124;-72
2021/09/12 10:25:33;;;;;;;6.18;3.70;;;;;;;-140.79;100.00;63287.88;5025760;28;20236;-72
2021/09/12 10:28:06;;;;;;;5.57;3.33;;;;;;;-140.79;100.00;63287.88;5024810;28;20040;-72
2021/09/12 10:30:38;;;;;;;7.45;3.40;;;;;;;-140.79;100.00;63287.88;5023741;28;20074;-72
2021/09/12 10:33:11;;;;;;;5.63;3.17;;;;;;;-140.79;100.00;63287.88;5025327;28;20091;-72
2021/09/12 10:35:46;;;;;;;7.55;3.20;;;;;;;-140.79;100.00;63287.88;5023001;28;20028;-71
2021/09/12 10:38:11;;;;;;;6.68;3.47;;;;;;;-140.79;100.00;63287.88;5017999;28;20029;-79
2021/09/12 10:40:46;;;;;;;8.52;3.17;;;;;;;-140.79;100.00;63287.88;5007785;28;20026;-78
2021/09/12 10:43:24;;;;;;;6.53;2.88;;;;;;;-140.79;100.00;63287.88;5024477;28;20060;-82
2021/09/12 10:46:02;;;;;;;7.00;3.10;;;;;;;-140.79;100.00;63287.88;5023163;28;20036;-81
2021/09/12 10:48:30;;;;;;;5.30;3.25;;;;;;;-140.79;100.00;63287.88;5028141;28;20072;-77
2021/09/12 10:50:56;;;;;;;5.75;2.92;;;;;;;-140.79;100.00;63287.88;5027003;28;20031;-77
2021/09/12 10:53:44;;;;;;;7.03;3.42;;;;;;;-140.79;100.00;63287.88;5027079;28;20237;-77
2021/09/12 10:56:15;;;;;;;4.68;3.10;;;;;;;-140.79;100.00;63287.88;5025782;28;20399;-78
2021/09/12 10:58:41;;;;;;;6.97;3.00;;;;;;;-140.79;100.00;63287.88;5028382;28;20059;-77
2021/09/12 11:01:07;;;;;;;7.95;3.20;;;;;;;-140.79;100.00;63287.88;5026820;28;20033;-77
2021/09/12 11:03:33;;;;;;;7.03;3.20;;;;;;;-140.79;100.00;63287.88;5026762;28;20056;-78
2021/09/12 11:05:59;;;;;;;5.65;2.67;;;;;;;-140.79;100.00;63287.88;5027202;28;20031;-78